createdAt,value
2023-03-02T00:01:29.703Z,13.70
2023-03-02T00:08:36.360Z,13.40
2023-03-02T00:15:40.164Z,14.10
2023-03-02T00:22:43.770Z,13.37
2023-03-02T00:29:47.524Z,13.97
2023-03-02T00:36:50.663Z,14.57
2023-03-02T00:43:53.836Z,13.90
2023-03-02T00:50:57.030Z,13.93
2023-03-02T00:58:00.474Z,14.17
2023-03-02T01:05:03.610Z,13.97
2023-03-02T01:12:10.315Z,12.20
2023-03-02T01:19:13.712Z,12.30
2023-03-02T01:26:16.963Z,12.43
2023-03-02T01:33:20.156Z,11.03
2023-03-02T01:48:07.577Z,11.47
2023-03-02T01:55:13.862Z,11.10
2023-03-02T02:02:23.900Z,10.37
2023-03-02T02:09:27.166Z,10.93
2023-03-02T02:16:31.378Z,11.30
2023-03-02T02:23:53.298Z,10.60
2023-03-02T02:31:07.794Z,10.63
2023-03-02T02:38:18.093Z,10.10
2023-03-02T02:45:22.487Z,10.10
2023-03-02T02:52:32.154Z,9.67
2023-03-02T02:59:50.851Z,11.03
2023-03-02T03:06:54.571Z,11.10
2023-03-02T03:13:59.617Z,10.97
2023-03-02T03:21:18.400Z,11.40
2023-03-02T03:28:21.917Z,10.00
2023-03-02T03:35:26.022Z,10.37
2023-03-02T03:42:29.490Z,9.90
2023-03-02T03:49:32.993Z,11.40
2023-03-02T03:56:36.252Z,11.40
2023-03-02T04:03:51.083Z,11.07
2023-03-02T04:10:54.213Z,11.50
2023-03-02T04:17:57.473Z,11.80
2023-03-02T04:25:00.724Z,11.50
2023-03-02T04:32:04.062Z,12.40
2023-03-02T04:39:07.338Z,12.40
2023-03-02T04:46:11.109Z,11.20
2023-03-02T04:53:19.161Z,12.93
2023-03-02T05:00:25.123Z,12.27
2023-03-02T05:07:28.760Z,13.10
2023-03-02T05:14:32.088Z,13.20
2023-03-02T05:21:35.388Z,12.80
2023-03-02T05:28:39.179Z,14.77
2023-03-02T05:35:42.434Z,13.90
2023-03-02T05:42:45.615Z,14.93
2023-03-02T05:49:48.913Z,14.93
2023-03-02T05:56:52.494Z,18.60
2023-03-02T06:03:55.716Z,17.60
2023-03-02T06:10:58.934Z,16.03
2023-03-02T06:18:02.243Z,16.50
2023-03-02T06:25:05.385Z,18.67
2023-03-02T06:32:10.544Z,16.43
2023-03-02T06:39:16.945Z,16.97
2023-03-02T06:46:20.923Z,17.33
2023-03-02T06:53:24.128Z,17.70
2023-03-02T07:00:28.306Z,16.50
2023-03-02T07:07:31.611Z,15.83
2023-03-02T07:14:34.819Z,17.23
2023-03-02T07:21:38.015Z,17.90
2023-03-02T07:28:43.264Z,16.30
2023-03-02T07:35:46.481Z,16.53
2023-03-02T07:42:49.806Z,16.53
2023-03-02T07:49:53.309Z,17.80
2023-03-02T07:56:56.911Z,18.60
2023-03-02T08:04:00.129Z,17.37
2023-03-02T08:11:05.210Z,18.30
2023-03-02T08:18:11.103Z,17.53
2023-03-02T08:25:15.205Z,17.07
2023-03-02T08:32:18.680Z,18.33
2023-03-02T08:39:23.474Z,17.83
2023-03-02T08:46:27.490Z,18.53
2023-03-02T08:53:30.771Z,18.37
2023-03-02T09:00:33.953Z,16.90
2023-03-02T09:07:39.715Z,17.23
2023-03-02T09:14:43.203Z,16.97
2023-03-02T09:21:46.520Z,18.40
2023-03-02T09:28:50.062Z,19.80
2023-03-02T09:35:53.425Z,20.53
2023-03-02T09:43:25.630Z,19.00
2023-03-02T09:51:28.930Z,20.20
2023-03-02T09:58:37.051Z,18.60
2023-03-02T10:05:50.047Z,18.40
2023-03-02T10:13:31.724Z,17.03
2023-03-02T10:20:36.873Z,16.10
2023-03-02T10:27:47.742Z,24.70
2023-03-02T10:34:52.182Z,15.70
2023-03-02T10:42:03.417Z,16.00
2023-03-02T10:49:09.655Z,16.30
2023-03-02T10:56:19.049Z,20.00
2023-03-02T11:03:27.754Z,14.23
2023-03-02T11:10:31.954Z,13.47
2023-03-02T11:17:55.052Z,15.50
2023-03-02T11:25:15.901Z,15.37
2023-03-02T11:32:30.047Z,14.67
2023-03-02T11:39:55.838Z,13.73
2023-03-02T11:47:07.762Z,14.17
2023-03-02T11:54:22.519Z,13.60
2023-03-02T12:01:32.374Z,12.47
2023-03-02T12:08:42.759Z,13.43
2023-03-02T12:15:48.520Z,13.70
2023-03-02T12:23:08.351Z,14.20
2023-03-02T12:30:27.424Z,13.37
2023-03-02T12:37:42.968Z,13.23
2023-03-02T12:45:07.391Z,12.30
2023-03-02T12:52:28.386Z,12.17
2023-03-02T12:59:32.209Z,12.43
2023-03-02T13:06:37.019Z,13.33
2023-03-02T13:13:48.594Z,12.50
2023-03-02T13:20:53.299Z,11.70
2023-03-02T13:28:10.766Z,11.73
2023-03-02T13:35:29.461Z,10.67
2023-03-02T13:42:40.757Z,9.30
2023-03-02T13:49:44.039Z,10.53
2023-03-02T13:56:47.631Z,11.70
2023-03-02T14:03:51.063Z,10.50
2023-03-02T14:10:54.314Z,10.50
2023-03-02T14:17:57.607Z,10.60
2023-03-02T14:25:00.794Z,11.10
2023-03-02T14:32:04.663Z,11.07
2023-03-02T14:39:09.293Z,9.73
2023-03-02T14:46:14.516Z,10.30
2023-03-02T14:53:26.228Z,10.67
2023-03-02T15:00:31.908Z,10.10
2023-03-02T15:07:40.793Z,8.73
2023-03-02T15:14:44.020Z,8.70
2023-03-02T15:21:47.211Z,8.07
2023-03-02T15:29:01.393Z,9.33
2023-03-02T15:36:07.477Z,8.30
2023-03-02T15:43:13.660Z,8.30
2023-03-02T15:50:17.195Z,8.80
2023-03-02T15:57:20.762Z,6.60
2023-03-02T16:04:26.260Z,6.30
2023-03-02T16:11:29.672Z,6.57
2023-03-02T16:18:32.952Z,6.77
2023-03-02T16:25:36.209Z,7.27
2023-03-02T16:32:40.470Z,6.17
2023-03-02T16:39:43.915Z,6.47
2023-03-02T16:46:47.186Z,6.97
2023-03-02T16:53:50.516Z,6.73
2023-03-02T17:00:53.947Z,6.40
2023-03-02T17:07:58.810Z,7.53
2023-03-02T17:15:02.076Z,8.70
2023-03-02T17:22:07.626Z,7.30
2023-03-02T17:29:11.424Z,6.00
2023-03-02T17:36:16.191Z,6.60
2023-03-02T17:43:19.549Z,6.23
2023-03-02T17:50:23.842Z,8.17
2023-03-02T17:57:29.244Z,9.03
2023-03-02T18:04:32.568Z,7.37
2023-03-02T18:11:35.781Z,5.70
2023-03-02T18:18:39.071Z,7.07
2023-03-02T18:25:42.337Z,6.43
2023-03-02T18:32:45.532Z,7.73
2023-03-02T18:39:48.933Z,6.93
2023-03-02T18:46:52.141Z,8.37
2023-03-02T18:53:56.150Z,8.27
2023-03-02T19:00:59.381Z,7.50
2023-03-02T19:08:04.647Z,7.70
2023-03-02T19:15:10.361Z,7.60
2023-03-02T19:22:17.930Z,9.03
2023-03-02T19:29:22.846Z,6.50
2023-03-02T19:36:28.466Z,8.03
2023-03-02T19:43:31.744Z,8.10
2023-03-02T19:50:35.058Z,9.40
2023-03-02T19:57:39.607Z,8.40
2023-03-02T20:04:45.057Z,7.50
2023-03-02T20:11:50.304Z,8.80
2023-03-02T20:18:53.487Z,9.00
2023-03-02T20:25:59.743Z,8.87
2023-03-02T20:33:07.622Z,8.77
2023-03-02T20:40:23.284Z,9.83
2023-03-02T20:47:33.963Z,8.10
2023-03-02T20:54:37.222Z,7.40
2023-03-02T21:01:41.661Z,8.00
2023-03-02T21:08:45.435Z,11.00
2023-03-02T21:15:49.868Z,10.77
2023-03-02T21:22:53.151Z,11.10
2023-03-02T21:29:56.646Z,10.93
2023-03-02T21:37:00.019Z,11.70
2023-03-02T21:44:05.096Z,11.43
2023-03-02T21:51:08.891Z,11.97
2023-03-02T21:58:17.596Z,11.90
2023-03-02T22:05:20.832Z,10.80
2023-03-02T22:12:33.098Z,10.23
2023-03-02T22:19:36.307Z,9.97
2023-03-02T22:26:41.303Z,11.10
2023-03-02T22:33:48.737Z,11.60
2023-03-02T22:40:53.357Z,11.17
2023-03-02T22:48:18.768Z,11.37
2023-03-02T22:55:27.300Z,11.40
2023-03-02T23:02:47.203Z,11.30
2023-03-02T23:09:50.665Z,12.83
2023-03-02T23:16:58.037Z,11.27
2023-03-02T23:24:02.502Z,11.97
2023-03-02T23:31:06.612Z,11.93
2023-03-02T23:38:10.043Z,10.23
2023-03-02T23:45:13.220Z,10.90
2023-03-02T23:52:16.536Z,11.63
2023-03-02T23:59:20.140Z,10.67
